sensor_id;sensor_type;location;lat;lon;timestamp;temperature;humidity
21335;DHT22;10826;52.536;13.432;2022-10-17T00:02:06;18.90;51.80
21335;DHT22;10826;52.536;13.432;2022-10-17T00:04:32;18.90;51.70
21335;DHT22;10826;52.536;13.432;2022-10-17T00:06:58;18.90;51.60
21335;DHT22;10826;52.536;13.432;2022-10-17T00:09:24;18.90;51.50
21335;DHT22;10826;52.536;13.432;2022-10-17T00:11:50;18.90;51.60
21335;DHT22;10826;52.536;13.432;2022-10-17T00:14:17;18.90;52.20
21335;DHT22;10826;52.536;13.432;2022-10-17T00:16:43;19.00;51.40
21335;DHT22;10826;52.536;13.432;2022-10-17T00:19:08;19.00;51.40
21335;DHT22;10826;52.536;13.432;2022-10-17T00:21:34;19.00;51.40
21335;DHT22;10826;52.536;13.432;2022-10-17T00:24:00;19.00;51.40
21335;DHT22;10826;52.536;13.432;2022-10-17T00:26:26;19.10;51.30
21335;DHT22;10826;52.536;13.432;2022-10-17T00:28:54;19.00;51.20
21335;DHT22;10826;52.536;13.432;2022-10-17T00:31:22;19.10;51.10
21335;DHT22;10826;52.536;13.432;2022-10-17T00:33:48;19.10;51.00
21335;DHT22;10826;52.536;13.432;2022-10-17T00:36:17;19.10;50.90
21335;DHT22;10826;52.536;13.432;2022-10-17T00:38:46;19.10;50.90
21335;DHT22;10826;52.536;13.432;2022-10-17T00:41:19;19.10;51.00
21335;DHT22;10826;52.536;13.432;2022-10-17T00:43:52;19.10;51.00
21335;DHT22;10826;52.536;13.432;2022-10-17T00:46:29;19.10;51.00
21335;DHT22;10826;52.536;13.432;2022-10-17T00:49:02;19.10;51.10
21335;DHT22;10826;52.536;13.432;2022-10-17T00:51:43;19.10;51.00
21335;DHT22;10826;52.536;13.432;2022-10-17T00:54:12;19.10;51.10
21335;DHT22;10826;52.536;13.432;2022-10-17T00:56:40;19.10;51.20
21335;DHT22;10826;52.536;13.432;2022-10-17T00:59:08;19.10;51.20
21335;DHT22;10826;52.536;13.432;2022-10-17T01:01:38;19.10;51.30
21335;DHT22;10826;52.536;13.432;2022-10-17T01:04:05;19.10;51.30
21335;DHT22;10826;52.536;13.432;2022-10-17T01:06:31;19.10;51.40
21335;DHT22;10826;52.536;13.432;2022-10-17T01:08:57;19.10;51.40
21335;DHT22;10826;52.536;13.432;2022-10-17T01:11:36;19.10;51.50
21335;DHT22;10826;52.536;13.432;2022-10-17T01:14:30;19.10;51.50
21335;DHT22;10826;52.536;13.432;2022-10-17T01:17:24;19.20;51.30
21335;DHT22;10826;52.536;13.432;2022-10-17T01:23:40;19.20;51.40
21335;DHT22;10826;52.536;13.432;2022-10-17T01:29:32;19.10;51.70
21335;DHT22;10826;52.536;13.432;2022-10-17T01:32:24;19.00;51.70
21335;DHT22;10826;52.536;13.432;2022-10-17T01:37:46;18.90;52.60
21335;DHT22;10826;52.536;13.432;2022-10-17T01:40:23;18.90;53.00
21335;DHT22;10826;52.536;13.432;2022-10-17T01:46:02;18.80;53.80
21335;DHT22;10826;52.536;13.432;2022-10-17T01:48:36;18.80;53.90
21335;DHT22;10826;52.536;13.432;2022-10-17T01:51:10;18.80;54.30
21335;DHT22;10826;52.536;13.432;2022-10-17T01:53:51;18.80;54.60
21335;DHT22;10826;52.536;13.432;2022-10-17T01:56:26;18.70;54.70
21335;DHT22;10826;52.536;13.432;2022-10-17T01:58:59;18.70;55.00
21335;DHT22;10826;52.536;13.432;2022-10-17T02:01:31;18.80;55.20
21335;DHT22;10826;52.536;13.432;2022-10-17T02:03:59;18.70;55.50
21335;DHT22;10826;52.536;13.432;2022-10-17T02:06:27;18.70;55.70
21335;DHT22;10826;52.536;13.432;2022-10-17T02:08:54;18.70;56.10
21335;DHT22;10826;52.536;13.432;2022-10-17T02:11:25;18.70;56.20
21335;DHT22;10826;52.536;13.432;2022-10-17T02:14:26;18.60;56.40
21335;DHT22;10826;52.536;13.432;2022-10-17T02:23:15;18.50;57.10
21335;DHT22;10826;52.536;13.432;2022-10-17T02:25:53;18.50;57.40
21335;DHT22;10826;52.536;13.432;2022-10-17T02:28:44;18.40;57.50
21335;DHT22;10826;52.536;13.432;2022-10-17T02:31:28;18.50;57.80
21335;DHT22;10826;52.536;13.432;2022-10-17T02:34:20;18.40;57.80
21335;DHT22;10826;52.536;13.432;2022-10-17T02:36:53;18.40;58.00
21335;DHT22;10826;52.536;13.432;2022-10-17T02:39:24;18.40;58.10
21335;DHT22;10826;52.536;13.432;2022-10-17T02:41:55;18.40;58.20
21335;DHT22;10826;52.536;13.432;2022-10-17T02:44:24;18.40;58.30
21335;DHT22;10826;52.536;13.432;2022-10-17T02:47:18;18.50;58.30
21335;DHT22;10826;52.536;13.432;2022-10-17T02:49:51;18.50;58.30
21335;DHT22;10826;52.536;13.432;2022-10-17T02:52:28;18.50;58.30
21335;DHT22;10826;52.536;13.432;2022-10-17T02:55:21;18.50;58.20
21335;DHT22;10826;52.536;13.432;2022-10-17T02:57:55;18.60;58.10
21335;DHT22;10826;52.536;13.432;2022-10-17T03:00:25;18.60;58.00
21335;DHT22;10826;52.536;13.432;2022-10-17T03:02:53;18.50;58.60
21335;DHT22;10826;52.536;13.432;2022-10-17T03:05:21;18.50;58.00
21335;DHT22;10826;52.536;13.432;2022-10-17T03:07:48;18.60;57.90
21335;DHT22;10826;52.536;13.432;2022-10-17T03:10:14;18.60;57.80
21335;DHT22;10826;52.536;13.432;2022-10-17T03:12:40;18.60;57.70
21335;DHT22;10826;52.536;13.432;2022-10-17T03:15:06;18.50;57.70
21335;DHT22;10826;52.536;13.432;2022-10-17T03:17:33;18.50;57.70
21335;DHT22;10826;52.536;13.432;2022-10-17T03:19:59;18.50;57.70
21335;DHT22;10826;52.536;13.432;2022-10-17T03:22:25;18.50;57.80
21335;DHT22;10826;52.536;13.432;2022-10-17T03:24:50;18.50;57.80
21335;DHT22;10826;52.536;13.432;2022-10-17T03:27:16;18.50;58.00
21335;DHT22;10826;52.536;13.432;2022-10-17T03:29:42;18.50;58.20
21335;DHT22;10826;52.536;13.432;2022-10-17T03:32:08;18.50;58.30
21335;DHT22;10826;52.536;13.432;2022-10-17T03:34:34;18.50;58.30
21335;DHT22;10826;52.536;13.432;2022-10-17T03:37:00;18.50;58.30
21335;DHT22;10826;52.536;13.432;2022-10-17T03:39:26;18.50;58.30
21335;DHT22;10826;52.536;13.432;2022-10-17T03:41:52;18.50;58.40
21335;DHT22;10826;52.536;13.432;2022-10-17T03:44:18;18.50;58.40
21335;DHT22;10826;52.536;13.432;2022-10-17T03:46:43;18.50;58.50
21335;DHT22;10826;52.536;13.432;2022-10-17T03:49:09;18.50;58.50
21335;DHT22;10826;52.536;13.432;2022-10-17T03:51:36;18.50;58.50
21335;DHT22;10826;52.536;13.432;2022-10-17T03:54:02;18.50;58.60
21335;DHT22;10826;52.536;13.432;2022-10-17T03:56:28;18.50;58.70
21335;DHT22;10826;52.536;13.432;2022-10-17T03:58:55;18.50;58.80
21335;DHT22;10826;52.536;13.432;2022-10-17T04:01:21;18.50;58.90
21335;DHT22;10826;52.536;13.432;2022-10-17T04:03:49;18.40;58.80
21335;DHT22;10826;52.536;13.432;2022-10-17T04:06:20;18.40;58.90
21335;DHT22;10826;52.536;13.432;2022-10-17T04:08:47;18.40;59.00
21335;DHT22;10826;52.536;13.432;2022-10-17T04:11:16;18.40;59.00
21335;DHT22;10826;52.536;13.432;2022-10-17T04:13:44;18.40;59.00
21335;DHT22;10826;52.536;13.432;2022-10-17T04:16:15;18.40;59.00
21335;DHT22;10826;52.536;13.432;2022-10-17T04:18:42;18.40;59.10
21335;DHT22;10826;52.536;13.432;2022-10-17T04:21:09;18.40;59.20
21335;DHT22;10826;52.536;13.432;2022-10-17T04:23:36;18.40;59.30
21335;DHT22;10826;52.536;13.432;2022-10-17T04:26:03;18.30;59.50
21335;DHT22;10826;52.536;13.432;2022-10-17T04:28:30;18.30;59.60
21335;DHT22;10826;52.536;13.432;2022-10-17T04:31:07;18.20;59.60
21335;DHT22;10826;52.536;13.432;2022-10-17T04:33:36;18.30;59.90
21335;DHT22;10826;52.536;13.432;2022-10-17T04:36:04;18.30;60.00
21335;DHT22;10826;52.536;13.432;2022-10-17T04:38:32;18.30;60.10
21335;DHT22;10826;52.536;13.432;2022-10-17T04:40:59;18.20;60.10
21335;DHT22;10826;52.536;13.432;2022-10-17T04:43:28;18.20;60.20
21335;DHT22;10826;52.536;13.432;2022-10-17T04:45:59;18.20;60.20
21335;DHT22;10826;52.536;13.432;2022-10-17T04:48:26;18.20;60.40
21335;DHT22;10826;52.536;13.432;2022-10-17T04:50:54;18.20;60.40
21335;DHT22;10826;52.536;13.432;2022-10-17T04:53:22;18.20;60.50
21335;DHT22;10826;52.536;13.432;2022-10-17T04:55:48;18.20;60.50
21335;DHT22;10826;52.536;13.432;2022-10-17T04:58:14;18.20;60.50
21335;DHT22;10826;52.536;13.432;2022-10-17T05:00:41;18.20;60.60
21335;DHT22;10826;52.536;13.432;2022-10-17T05:03:07;18.20;60.60
21335;DHT22;10826;52.536;13.432;2022-10-17T05:05:35;18.20;60.60
21335;DHT22;10826;52.536;13.432;2022-10-17T05:08:02;18.10;60.70
21335;DHT22;10826;52.536;13.432;2022-10-17T05:10:28;18.10;60.70
21335;DHT22;10826;52.536;13.432;2022-10-17T05:12:53;18.10;60.70
21335;DHT22;10826;52.536;13.432;2022-10-17T05:15:19;18.10;60.70
21335;DHT22;10826;52.536;13.432;2022-10-17T05:17:45;18.10;60.80
21335;DHT22;10826;52.536;13.432;2022-10-17T05:20:11;18.10;60.90
21335;DHT22;10826;52.536;13.432;2022-10-17T05:22:37;18.10;60.90
21335;DHT22;10826;52.536;13.432;2022-10-17T05:25:04;18.00;60.80
21335;DHT22;10826;52.536;13.432;2022-10-17T05:27:30;18.00;60.90
21335;DHT22;10826;52.536;13.432;2022-10-17T05:29:56;18.00;61.00
21335;DHT22;10826;52.536;13.432;2022-10-17T05:32:22;18.00;61.10
21335;DHT22;10826;52.536;13.432;2022-10-17T05:34:48;18.00;61.10
21335;DHT22;10826;52.536;13.432;2022-10-17T05:37:14;18.00;61.20
21335;DHT22;10826;52.536;13.432;2022-10-17T05:39:39;18.00;61.30
21335;DHT22;10826;52.536;13.432;2022-10-17T05:42:06;18.00;61.40
21335;DHT22;10826;52.536;13.432;2022-10-17T05:44:32;17.90;61.50
21335;DHT22;10826;52.536;13.432;2022-10-17T05:46:58;17.90;61.60
21335;DHT22;10826;52.536;13.432;2022-10-17T05:49:24;17.90;61.70
21335;DHT22;10826;52.536;13.432;2022-10-17T05:51:50;17.90;61.80
21335;DHT22;10826;52.536;13.432;2022-10-17T05:54:16;17.90;61.90
21335;DHT22;10826;52.536;13.432;2022-10-17T05:56:42;17.90;61.90
21335;DHT22;10826;52.536;13.432;2022-10-17T05:59:07;17.90;62.00
21335;DHT22;10826;52.536;13.432;2022-10-17T06:01:33;17.90;62.00
21335;DHT22;10826;52.536;13.432;2022-10-17T06:03:59;17.90;62.10
21335;DHT22;10826;52.536;13.432;2022-10-17T06:06:25;17.90;62.20
21335;DHT22;10826;52.536;13.432;2022-10-17T06:08:51;17.90;62.20
21335;DHT22;10826;52.536;13.432;2022-10-17T06:11:17;17.90;62.20
21335;DHT22;10826;52.536;13.432;2022-10-17T06:13:43;17.90;62.20
21335;DHT22;10826;52.536;13.432;2022-10-17T06:16:09;17.90;62.20
21335;DHT22;10826;52.536;13.432;2022-10-17T06:18:35;18.00;62.20
21335;DHT22;10826;52.536;13.432;2022-10-17T06:21:06;18.00;62.20
21335;DHT22;10826;52.536;13.432;2022-10-17T06:23:34;18.00;62.00
21335;DHT22;10826;52.536;13.432;2022-10-17T06:26:02;18.10;62.00
21335;DHT22;10826;52.536;13.432;2022-10-17T06:28:29;18.10;61.80
21335;DHT22;10826;52.536;13.432;2022-10-17T06:30:56;18.20;61.70
21335;DHT22;10826;52.536;13.432;2022-10-17T06:33:22;18.30;61.60
21335;DHT22;10826;52.536;13.432;2022-10-17T06:35:52;18.30;61.50
21335;DHT22;10826;52.536;13.432;2022-10-17T06:38:19;18.30;61.50
21335;DHT22;10826;52.536;13.432;2022-10-17T06:40:46;18.30;61.50
21335;DHT22;10826;52.536;13.432;2022-10-17T06:43:12;18.40;61.40
21335;DHT22;10826;52.536;13.432;2022-10-17T06:45:39;18.40;61.40
21335;DHT22;10826;52.536;13.432;2022-10-17T06:48:05;18.40;61.40
21335;DHT22;10826;52.536;13.432;2022-10-17T06:50:31;18.40;61.30
21335;DHT22;10826;52.536;13.432;2022-10-17T06:52:57;18.50;61.40
21335;DHT22;10826;52.536;13.432;2022-10-17T06:55:23;18.50;61.30
21335;DHT22;10826;52.536;13.432;2022-10-17T06:57:49;18.50;61.30
21335;DHT22;10826;52.536;13.432;2022-10-17T07:00:17;18.50;61.20
21335;DHT22;10826;52.536;13.432;2022-10-17T07:02:43;18.60;61.10
21335;DHT22;10826;52.536;13.432;2022-10-17T07:05:09;18.60;61.10
21335;DHT22;10826;52.536;13.432;2022-10-17T07:07:35;18.60;61.00
21335;DHT22;10826;52.536;13.432;2022-10-17T07:10:01;18.70;61.00
21335;DHT22;10826;52.536;13.432;2022-10-17T07:12:28;18.70;61.00
21335;DHT22;10826;52.536;13.432;2022-10-17T07:14:54;18.80;60.70
21335;DHT22;10826;52.536;13.432;2022-10-17T07:17:20;18.80;60.60
21335;DHT22;10826;52.536;13.432;2022-10-17T07:19:46;18.90;60.60
21335;DHT22;10826;52.536;13.432;2022-10-17T07:22:12;18.90;60.50
21335;DHT22;10826;52.536;13.432;2022-10-17T07:24:38;19.00;60.40
21335;DHT22;10826;52.536;13.432;2022-10-17T07:27:03;19.00;60.30
21335;DHT22;10826;52.536;13.432;2022-10-17T07:29:29;19.10;61.00
21335;DHT22;10826;52.536;13.432;2022-10-17T07:31:55;19.10;60.20
21335;DHT22;10826;52.536;13.432;2022-10-17T07:34:21;19.10;60.10
21335;DHT22;10826;52.536;13.432;2022-10-17T07:36:52;19.10;60.00
21335;DHT22;10826;52.536;13.432;2022-10-17T07:39:18;19.20;59.80
21335;DHT22;10826;52.536;13.432;2022-10-17T07:41:44;19.30;59.80
21335;DHT22;10826;52.536;13.432;2022-10-17T07:44:10;19.30;59.60
21335;DHT22;10826;52.536;13.432;2022-10-17T07:46:36;19.40;59.50
21335;DHT22;10826;52.536;13.432;2022-10-17T07:49:02;19.40;59.40
21335;DHT22;10826;52.536;13.432;2022-10-17T07:51:28;19.40;59.10
21335;DHT22;10826;52.536;13.432;2022-10-17T07:53:54;19.50;59.10
21335;DHT22;10826;52.536;13.432;2022-10-17T07:56:20;19.50;59.10
21335;DHT22;10826;52.536;13.432;2022-10-17T07:58:50;19.60;58.90
21335;DHT22;10826;52.536;13.432;2022-10-17T08:01:16;19.60;58.70
21335;DHT22;10826;52.536;13.432;2022-10-17T08:03:44;19.70;58.70
21335;DHT22;10826;52.536;13.432;2022-10-17T08:06:12;19.70;58.40
21335;DHT22;10826;52.536;13.432;2022-10-17T08:08:38;19.70;58.30
21335;DHT22;10826;52.536;13.432;2022-10-17T08:11:10;19.70;58.30
21335;DHT22;10826;52.536;13.432;2022-10-17T08:13:37;19.70;58.20
21335;DHT22;10826;52.536;13.432;2022-10-17T08:16:07;19.80;58.20
21335;DHT22;10826;52.536;13.432;2022-10-17T08:18:36;19.80;58.10
21335;DHT22;10826;52.536;13.432;2022-10-17T08:21:04;19.90;58.10
21335;DHT22;10826;52.536;13.432;2022-10-17T08:23:32;19.90;57.90
21335;DHT22;10826;52.536;13.432;2022-10-17T08:26:00;20.00;57.70
21335;DHT22;10826;52.536;13.432;2022-10-17T08:28:27;20.10;57.70
21335;DHT22;10826;52.536;13.432;2022-10-17T08:30:53;20.10;57.60
21335;DHT22;10826;52.536;13.432;2022-10-17T08:33:26;20.10;57.50
21335;DHT22;10826;52.536;13.432;2022-10-17T08:35:52;20.10;57.50
21335;DHT22;10826;52.536;13.432;2022-10-17T08:38:18;20.20;57.20
21335;DHT22;10826;52.536;13.432;2022-10-17T08:40:47;20.20;57.10
21335;DHT22;10826;52.536;13.432;2022-10-17T08:43:41;20.30;57.00
21335;DHT22;10826;52.536;13.432;2022-10-17T08:46:20;20.30;56.90
21335;DHT22;10826;52.536;13.432;2022-10-17T08:48:47;20.40;56.90
21335;DHT22;10826;52.536;13.432;2022-10-17T08:51:21;20.40;56.80
21335;DHT22;10826;52.536;13.432;2022-10-17T08:54:09;20.50;56.70
21335;DHT22;10826;52.536;13.432;2022-10-17T08:56:44;20.50;56.50
21335;DHT22;10826;52.536;13.432;2022-10-17T08:59:17;20.50;56.50
21335;DHT22;10826;52.536;13.432;2022-10-17T09:08:15;20.70;56.30
21335;DHT22;10826;52.536;13.432;2022-10-17T09:10:59;20.80;56.10
21335;DHT22;10826;52.536;13.432;2022-10-17T09:14:17;20.80;56.00
21335;DHT22;10826;52.536;13.432;2022-10-17T09:17:30;20.90;56.00
21335;DHT22;10826;52.536;13.432;2022-10-17T09:22:42;21.00;55.90
21335;DHT22;10826;52.536;13.432;2022-10-17T09:25:16;21.10;55.80
21335;DHT22;10826;52.536;13.432;2022-10-17T09:30:29;21.20;55.50
21335;DHT22;10826;52.536;13.432;2022-10-17T09:32:56;21.20;55.30
21335;DHT22;10826;52.536;13.432;2022-10-17T09:35:22;21.30;55.40
21335;DHT22;10826;52.536;13.432;2022-10-17T09:37:51;21.40;55.10
21335;DHT22;10826;52.536;13.432;2022-10-17T09:40:24;21.40;54.90
21335;DHT22;10826;52.536;13.432;2022-10-17T09:42:56;21.50;54.80
21335;DHT22;10826;52.536;13.432;2022-10-17T09:45:24;21.50;54.80
21335;DHT22;10826;52.536;13.432;2022-10-17T09:47:56;21.60;54.60
21335;DHT22;10826;52.536;13.432;2022-10-17T09:50:32;21.70;54.30
21335;DHT22;10826;52.536;13.432;2022-10-17T09:53:23;21.80;54.00
21335;DHT22;10826;52.536;13.432;2022-10-17T09:55:57;21.90;53.60
21335;DHT22;10826;52.536;13.432;2022-10-17T09:58:50;21.90;53.50
21335;DHT22;10826;52.536;13.432;2022-10-17T10:01:24;22.00;53.10
21335;DHT22;10826;52.536;13.432;2022-10-17T10:04:14;22.10;53.00
21335;DHT22;10826;52.536;13.432;2022-10-17T10:07:03;22.20;52.40
21335;DHT22;10826;52.536;13.432;2022-10-17T10:09:36;22.20;52.50
21335;DHT22;10826;52.536;13.432;2022-10-17T10:12:13;22.30;52.50
21335;DHT22;10826;52.536;13.432;2022-10-17T10:15:01;22.40;52.20
21335;DHT22;10826;52.536;13.432;2022-10-17T10:17:59;22.40;52.00
21335;DHT22;10826;52.536;13.432;2022-10-17T10:20:28;22.50;51.60
21335;DHT22;10826;52.536;13.432;2022-10-17T10:23:14;22.60;51.20
21335;DHT22;10826;52.536;13.432;2022-10-17T10:25:52;22.70;51.00
21335;DHT22;10826;52.536;13.432;2022-10-17T10:28:28;22.80;51.00
21335;DHT22;10826;52.536;13.432;2022-10-17T10:30:58;22.90;51.10
21335;DHT22;10826;52.536;13.432;2022-10-17T10:33:29;23.00;51.20
21335;DHT22;10826;52.536;13.432;2022-10-17T10:36:01;23.20;51.10
21335;DHT22;10826;52.536;13.432;2022-10-17T10:38:33;23.20;50.70
21335;DHT22;10826;52.536;13.432;2022-10-17T10:41:08;23.40;50.50
21335;DHT22;10826;52.536;13.432;2022-10-17T10:43:50;23.50;50.20
21335;DHT22;10826;52.536;13.432;2022-10-17T10:46:20;23.60;50.00
21335;DHT22;10826;52.536;13.432;2022-10-17T10:48:55;23.60;49.80
21335;DHT22;10826;52.536;13.432;2022-10-17T10:51:40;23.70;49.70
21335;DHT22;10826;52.536;13.432;2022-10-17T10:54:19;23.80;49.50
21335;DHT22;10826;52.536;13.432;2022-10-17T10:56:53;23.80;49.20
21335;DHT22;10826;52.536;13.432;2022-10-17T10:59:35;23.90;49.10
21335;DHT22;10826;52.536;13.432;2022-10-17T11:02:33;23.90;49.10
21335;DHT22;10826;52.536;13.432;2022-10-17T11:05:34;24.00;48.70
21335;DHT22;10826;52.536;13.432;2022-10-17T11:08:29;23.90;48.50
21335;DHT22;10826;52.536;13.432;2022-10-17T11:11:28;24.00;48.40
21335;DHT22;10826;52.536;13.432;2022-10-17T11:17:44;24.10;48.20
21335;DHT22;10826;52.536;13.432;2022-10-17T11:20:49;24.10;48.10
21335;DHT22;10826;52.536;13.432;2022-10-17T11:23:46;24.20;48.00
21335;DHT22;10826;52.536;13.432;2022-10-17T11:26:26;24.20;47.80
21335;DHT22;10826;52.536;13.432;2022-10-17T11:28:57;24.20;47.60
21335;DHT22;10826;52.536;13.432;2022-10-17T11:31:31;24.20;47.50
21335;DHT22;10826;52.536;13.432;2022-10-17T11:34:14;24.20;47.50
21335;DHT22;10826;52.536;13.432;2022-10-17T11:36:47;24.30;47.20
21335;DHT22;10826;52.536;13.432;2022-10-17T11:39:44;24.20;47.10
21335;DHT22;10826;52.536;13.432;2022-10-17T11:42:33;24.30;46.80
21335;DHT22;10826;52.536;13.432;2022-10-17T11:45:09;24.30;46.70
21335;DHT22;10826;52.536;13.432;2022-10-17T11:47:50;24.40;46.70
21335;DHT22;10826;52.536;13.432;2022-10-17T11:50:39;24.40;46.50
21335;DHT22;10826;52.536;13.432;2022-10-17T11:53:22;24.40;46.50
21335;DHT22;10826;52.536;13.432;2022-10-17T11:55:53;24.50;46.40
21335;DHT22;10826;52.536;13.432;2022-10-17T11:58:47;24.50;46.30
21335;DHT22;10826;52.536;13.432;2022-10-17T12:02:08;24.50;46.00
21335;DHT22;10826;52.536;13.432;2022-10-17T12:05:06;24.50;45.90
21335;DHT22;10826;52.536;13.432;2022-10-17T12:07:53;24.60;46.10
21335;DHT22;10826;52.536;13.432;2022-10-17T12:10:57;24.60;46.20
21335;DHT22;10826;52.536;13.432;2022-10-17T12:19:22;24.80;45.90
21335;DHT22;10826;52.536;13.432;2022-10-17T12:22:11;24.80;45.70
21335;DHT22;10826;52.536;13.432;2022-10-17T12:25:00;24.90;45.70
21335;DHT22;10826;52.536;13.432;2022-10-17T12:27:41;25.00;45.50
21335;DHT22;10826;52.536;13.432;2022-10-17T12:30:14;25.10;45.00
21335;DHT22;10826;52.536;13.432;2022-10-17T12:46:55;25.20;44.40
21335;DHT22;10826;52.536;13.432;2022-10-17T12:49:44;25.20;44.60
21335;DHT22;10826;52.536;13.432;2022-10-17T13:01:03;25.20;44.20
21335;DHT22;10826;52.536;13.432;2022-10-17T13:03:41;25.20;43.90
21335;DHT22;10826;52.536;13.432;2022-10-17T13:06:37;25.20;43.90
21335;DHT22;10826;52.536;13.432;2022-10-17T13:09:34;25.20;44.50
21335;DHT22;10826;52.536;13.432;2022-10-17T13:12:05;25.20;44.20
21335;DHT22;10826;52.536;13.432;2022-10-17T13:14:40;25.20;44.00
21335;DHT22;10826;52.536;13.432;2022-10-17T13:17:21;25.20;44.80
21335;DHT22;10826;52.536;13.432;2022-10-17T13:19:50;25.20;44.00
21335;DHT22;10826;52.536;13.432;2022-10-17T13:22:19;25.20;44.20
21335;DHT22;10826;52.536;13.432;2022-10-17T13:24:48;25.20;44.10
21335;DHT22;10826;52.536;13.432;2022-10-17T13:27:28;25.20;44.10
21335;DHT22;10826;52.536;13.432;2022-10-17T13:29:57;25.30;43.80
21335;DHT22;10826;52.536;13.432;2022-10-17T13:32:33;25.20;43.90
21335;DHT22;10826;52.536;13.432;2022-10-17T13:37:40;25.30;43.80
21335;DHT22;10826;52.536;13.432;2022-10-17T13:40:19;25.20;44.00
21335;DHT22;10826;52.536;13.432;2022-10-17T13:42:47;25.30;43.70
21335;DHT22;10826;52.536;13.432;2022-10-17T13:45:27;25.30;43.90
21335;DHT22;10826;52.536;13.432;2022-10-17T13:48:01;25.30;43.60
21335;DHT22;10826;52.536;13.432;2022-10-17T13:50:36;25.30;43.70
21335;DHT22;10826;52.536;13.432;2022-10-17T13:53:11;25.30;43.70
21335;DHT22;10826;52.536;13.432;2022-10-17T13:58:40;25.40;43.70
21335;DHT22;10826;52.536;13.432;2022-10-17T14:01:08;25.40;43.70
21335;DHT22;10826;52.536;13.432;2022-10-17T14:03:36;25.40;43.70
21335;DHT22;10826;52.536;13.432;2022-10-17T14:06:20;25.40;43.50
21335;DHT22;10826;52.536;13.432;2022-10-17T14:09:03;25.40;43.60
21335;DHT22;10826;52.536;13.432;2022-10-17T14:11:39;25.40;43.60
21335;DHT22;10826;52.536;13.432;2022-10-17T14:14:19;25.40;43.60
21335;DHT22;10826;52.536;13.432;2022-10-17T14:16:48;25.40;43.70
21335;DHT22;10826;52.536;13.432;2022-10-17T14:19:31;25.40;44.00
21335;DHT22;10826;52.536;13.432;2022-10-17T14:24:49;25.40;43.50
21335;DHT22;10826;52.536;13.432;2022-10-17T14:27:34;25.40;43.70
21335;DHT22;10826;52.536;13.432;2022-10-17T14:30:30;25.40;43.50
21335;DHT22;10826;52.536;13.432;2022-10-17T14:33:00;25.40;43.50
21335;DHT22;10826;52.536;13.432;2022-10-17T14:35:29;25.40;43.80
21335;DHT22;10826;52.536;13.432;2022-10-17T14:38:03;25.40;43.70
21335;DHT22;10826;52.536;13.432;2022-10-17T14:40:31;25.40;43.70
21335;DHT22;10826;52.536;13.432;2022-10-17T14:43:03;25.30;43.80
21335;DHT22;10826;52.536;13.432;2022-10-17T14:45:33;25.30;43.80
21335;DHT22;10826;52.536;13.432;2022-10-17T14:48:15;25.30;43.90
21335;DHT22;10826;52.536;13.432;2022-10-17T14:51:10;25.30;43.90
21335;DHT22;10826;52.536;13.432;2022-10-17T14:53:37;25.30;43.60
21335;DHT22;10826;52.536;13.432;2022-10-17T14:56:20;25.20;43.90
21335;DHT22;10826;52.536;13.432;2022-10-17T14:58:51;25.20;43.90
21335;DHT22;10826;52.536;13.432;2022-10-17T15:01:18;25.10;44.20
21335;DHT22;10826;52.536;13.432;2022-10-17T15:03:44;25.10;44.30
21335;DHT22;10826;52.536;13.432;2022-10-17T15:06:36;25.10;44.40
21335;DHT22;10826;52.536;13.432;2022-10-17T15:09:02;25.00;44.40
21335;DHT22;10826;52.536;13.432;2022-10-17T15:11:29;24.90;44.70
21335;DHT22;10826;52.536;13.432;2022-10-17T15:13:55;24.90;44.80
21335;DHT22;10826;52.536;13.432;2022-10-17T15:16:23;24.90;45.60
21335;DHT22;10826;52.536;13.432;2022-10-17T15:18:51;24.90;44.90
21335;DHT22;10826;52.536;13.432;2022-10-17T15:21:19;24.90;45.00
21335;DHT22;10826;52.536;13.432;2022-10-17T15:23:47;24.90;45.10
21335;DHT22;10826;52.536;13.432;2022-10-17T15:28:40;24.80;45.20
21335;DHT22;10826;52.536;13.432;2022-10-17T15:31:12;24.80;45.20
21335;DHT22;10826;52.536;13.432;2022-10-17T15:33:39;24.80;45.40
21335;DHT22;10826;52.536;13.432;2022-10-17T15:36:20;24.80;45.40
21335;DHT22;10826;52.536;13.432;2022-10-17T15:38:49;24.80;45.40
21335;DHT22;10826;52.536;13.432;2022-10-17T15:41:18;24.70;45.70
21335;DHT22;10826;52.536;13.432;2022-10-17T15:43:46;24.70;45.80
21335;DHT22;10826;52.536;13.432;2022-10-17T15:46:19;24.70;45.90
21335;DHT22;10826;52.536;13.432;2022-10-17T15:48:49;24.60;45.90
21335;DHT22;10826;52.536;13.432;2022-10-17T15:51:15;24.60;46.10
21335;DHT22;10826;52.536;13.432;2022-10-17T15:53:42;24.60;46.20
21335;DHT22;10826;52.536;13.432;2022-10-17T15:56:23;24.60;46.20
21335;DHT22;10826;52.536;13.432;2022-10-17T15:58:53;24.50;46.30
21335;DHT22;10826;52.536;13.432;2022-10-17T16:01:22;24.50;46.50
21335;DHT22;10826;52.536;13.432;2022-10-17T16:03:51;24.50;46.60
21335;DHT22;10826;52.536;13.432;2022-10-17T16:06:18;24.40;46.70
21335;DHT22;10826;52.536;13.432;2022-10-17T16:08:46;24.40;46.80
21335;DHT22;10826;52.536;13.432;2022-10-17T16:11:29;24.40;47.00
21335;DHT22;10826;52.536;13.432;2022-10-17T16:14:00;24.40;46.90
21335;DHT22;10826;52.536;13.432;2022-10-17T16:16:29;24.30;47.10
21335;DHT22;10826;52.536;13.432;2022-10-17T16:18:55;24.30;47.20
21335;DHT22;10826;52.536;13.432;2022-10-17T16:21:24;24.20;47.10
21335;DHT22;10826;52.536;13.432;2022-10-17T16:23:53;24.20;47.20
21335;DHT22;10826;52.536;13.432;2022-10-17T16:26:19;24.20;47.30
21335;DHT22;10826;52.536;13.432;2022-10-17T16:28:46;24.20;47.40
21335;DHT22;10826;52.536;13.432;2022-10-17T16:31:25;24.10;47.50
21335;DHT22;10826;52.536;13.432;2022-10-17T16:33:55;24.10;47.50
21335;DHT22;10826;52.536;13.432;2022-10-17T16:36:22;24.00;47.50
21335;DHT22;10826;52.536;13.432;2022-10-17T16:38:49;24.00;47.70
21335;DHT22;10826;52.536;13.432;2022-10-17T16:41:27;23.90;47.70
21335;DHT22;10826;52.536;13.432;2022-10-17T16:43:57;23.90;47.80
21335;DHT22;10826;52.536;13.432;2022-10-17T16:46:26;23.90;47.90
21335;DHT22;10826;52.536;13.432;2022-10-17T16:48:54;23.80;48.00
21335;DHT22;10826;52.536;13.432;2022-10-17T16:51:20;23.80;48.00
21335;DHT22;10826;52.536;13.432;2022-10-17T16:53:48;23.80;48.10
21335;DHT22;10826;52.536;13.432;2022-10-17T16:56:20;23.80;48.10
21335;DHT22;10826;52.536;13.432;2022-10-17T16:58:48;23.70;48.10
21335;DHT22;10826;52.536;13.432;2022-10-17T17:01:19;23.70;48.30
21335;DHT22;10826;52.536;13.432;2022-10-17T17:03:48;23.70;48.30